Time;durP1;ratioP1;P1;durP2;ratioP2;P2;SDS_P1;SDS_P2;PMS_P1;PMS_P2;Temp;Humidity;BMP_temperature;BMP_pressure;BME280_temperature;BME280_humidity;BME280_pressure;Samples;Min_cycle;Max_cycle;Signal;HPM_P1;HPM_P2
2022/05/08 00:00:31;;;;;;;5.23;1.07;;;9.20;99.90;;;;;;5031520;28;20626;-89
2022/05/08 00:02:58;;;;;;;7.90;1.53;;;9.20;99.90;;;;;;5048365;28;20220;-89
2022/05/08 00:05:27;;;;;;;9.67;2.03;;;9.20;99.90;;;;;;5031302;28;20366;-91
2022/05/08 00:07:53;;;;;;;10.30;2.20;;;9.20;99.90;;;;;;5061894;28;20285;-93
2022/05/08 00:10:19;;;;;;;4.83;1.57;;;9.20;99.90;;;;;;5047870;28;20271;-89
2022/05/08 00:12:45;;;;;;;3.43;1.83;;;9.20;99.90;;;;;;5030271;28;20225;-89
2022/05/08 00:15:11;;;;;;;6.10;1.30;;;9.10;99.90;;;;;;5048204;28;20221;-89
2022/05/08 00:17:37;;;;;;;2.17;1.40;;;9.10;99.90;;;;;;5030404;28;20286;-89
2022/05/08 00:20:05;;;;;;;5.17;1.57;;;9.10;99.90;;;;;;5030757;28;20190;-90
2022/05/08 00:22:30;;;;;;;5.70;1.33;;;9.10;99.90;;;;;;5046662;28;20635;-90
2022/05/08 00:24:56;;;;;;;11.43;1.50;;;9.10;99.90;;;;;;5047167;28;20236;-90
2022/05/08 00:27:22;;;;;;;5.33;1.67;;;9.10;99.90;;;;;;5030226;28;20230;-89
2022/05/08 00:29:48;;;;;;;4.97;2.30;;;9.10;99.90;;;;;;5029929;28;20252;-89
2022/05/08 00:32:14;;;;;;;1.60;1.00;;;9.10;99.90;;;;;;5046850;28;20702;-90
2022/05/08 00:34:39;;;;;;;1.90;1.20;;;9.20;99.90;;;;;;5012944;28;21153;-89
2022/05/08 00:37:05;;;;;;;3.17;1.23;;;9.20;99.90;;;;;;5030312;28;20283;-90
2022/05/08 00:39:32;;;;;;;11.13;1.77;;;9.20;99.90;;;;;;5046667;28;20355;-91
2022/05/08 00:41:59;;;;;;;5.63;2.20;;;9.20;99.90;;;;;;5047182;28;20267;-89
2022/05/08 00:44:25;;;;;;;2.10;1.93;;;9.20;99.90;;;;;;5030124;28;20217;-89
2022/05/08 00:46:50;;;;;;;3.43;2.03;;;9.20;99.90;;;;;;5029791;28;20579;-90
2022/05/08 00:49:16;;;;;;;2.60;1.63;;;9.20;99.90;;;;;;5030353;28;20275;-90
2022/05/08 00:51:47;;;;;;;5.67;1.40;;;9.20;99.90;;;;;;5029933;28;20431;-90
2022/05/08 00:54:14;;;;;;;10.23;2.13;;;9.20;99.90;;;;;;5029948;28;20213;-90
2022/05/08 00:56:40;;;;;;;0.80;0.80;;;9.20;99.90;;;;;;5046730;28;20626;-89
2022/05/08 00:59:06;;;;;;;9.87;1.53;;;9.20;99.90;;;;;;5029550;28;20930;-89
2022/05/08 01:01:32;;;;;;;1.63;1.50;;;9.20;99.90;;;;;;5045881;28;20182;-89
2022/05/08 01:03:58;;;;;;;7.10;0.87;;;9.10;99.90;;;;;;5047187;28;20210;-89
2022/05/08 01:06:23;;;;;;;1.80;1.00;;;9.10;99.90;;;;;;5046019;28;20576;-89
2022/05/08 01:08:50;;;;;;;2.20;1.20;;;9.10;99.90;;;;;;5045954;28;20226;-90
2022/05/08 01:11:17;;;;;;;3.67;2.33;;;9.10;99.90;;;;;;5046548;28;20736;-90
2022/05/08 01:13:45;;;;;;;5.07;0.70;;;9.00;99.90;;;;;;5046771;28;20287;-89
2022/05/08 01:16:19;;;;;;;3.80;1.50;;;9.00;99.90;;;;;;5029392;28;20484;-90
2022/05/08 01:18:48;;;;;;;1.37;1.20;;;9.00;99.90;;;;;;5045395;28;20209;-89
2022/05/08 01:21:16;;;;;;;1.80;1.47;;;9.00;99.90;;;;;;5045767;28;20214;-89
2022/05/08 01:23:43;;;;;;;4.53;1.33;;;9.00;99.90;;;;;;5046691;28;20286;-88
2022/05/08 01:26:09;;;;;;;2.87;1.30;;;9.00;99.90;;;;;;5046692;28;20189;-89
2022/05/08 01:28:35;;;;;;;1.57;1.43;;;9.00;99.90;;;;;;5046493;28;20501;-91
2022/05/08 01:31:01;;;;;;;4.30;1.47;;;8.90;99.90;;;;;;5046589;28;20375;-91
2022/05/08 01:33:27;;;;;;;2.40;1.03;;;8.90;99.90;;;;;;5045823;28;20252;-90
2022/05/08 01:35:53;;;;;;;0.80;0.80;;;9.00;99.90;;;;;;5046316;28;20275;-89
2022/05/08 01:38:21;;;;;;;3.70;1.97;;;8.90;99.90;;;;;;5044824;28;20218;-89
2022/05/08 01:40:47;;;;;;;4.20;1.73;;;8.90;99.90;;;;;;5044727;28;20216;-90
2022/05/08 01:43:13;;;;;;;3.23;1.73;;;8.90;99.90;;;;;;5046711;28;20213;-90
2022/05/08 01:45:40;;;;;;;1.47;1.47;;;8.90;99.90;;;;;;5045001;28;20301;-89
2022/05/08 01:48:22;;;;;;;1.47;1.37;;;8.80;99.90;;;;;;5044219;28;20525;-89
2022/05/08 01:50:55;;;;;;;11.30;1.00;;;8.80;99.90;;;;;;5045039;28;20292;-89
2022/05/08 01:53:32;;;;;;;1.17;1.17;;;8.80;99.90;;;;;;5045997;28;20209;-90
2022/05/08 01:55:58;;;;;;;1.70;0.70;;;8.80;99.90;;;;;;5044583;28;20185;-89
2022/05/08 01:58:25;;;;;;;10.33;1.53;;;8.80;99.90;;;;;;5045003;28;20201;-93
2022/05/08 02:00:52;;;;;;;1.37;1.27;;;8.80;99.90;;;;;;5045319;28;20671;-89
2022/05/08 02:03:19;;;;;;;11.57;1.23;;;8.80;99.90;;;;;;5028172;28;20778;-89
2022/05/08 02:05:46;;;;;;;1.97;1.50;;;8.80;99.90;;;;;;5045967;28;20216;-89
2022/05/08 02:08:12;;;;;;;1.20;1.03;;;8.70;99.90;;;;;;5035091;28;20209;-91
2022/05/08 02:10:39;;;;;;;5.77;1.30;;;8.70;99.90;;;;;;5031630;28;20269;-89
2022/05/08 02:13:09;;;;;;;1.50;1.40;;;8.70;99.90;;;;;;5028378;28;20218;-90
2022/05/08 02:15:35;;;;;;;2.77;0.83;;;8.70;99.90;;;;;;5044640;28;20220;-90
2022/05/08 02:18:03;;;;;;;5.03;1.57;;;8.70;99.90;;;;;;5028739;28;20225;-89
2022/05/08 02:20:30;;;;;;;2.10;1.53;;;8.70;99.90;;;;;;5046291;28;20218;-89
2022/05/08 02:22:56;;;;;;;2.40;0.77;;;8.60;99.90;;;;;;5044335;28;20856;-90
2022/05/08 02:25:21;;;;;;;1.00;1.00;;;8.60;99.90;;;;;;5045468;28;20186;-90
2022/05/08 02:27:51;;;;;;;3.50;1.33;;;8.60;99.90;;;;;;5044273;28;20220;-89
2022/05/08 02:30:20;;;;;;;16.13;2.20;;;8.60;99.90;;;;;;5011614;28;20222;-89
2022/05/08 02:32:46;;;;;;;4.13;0.93;;;8.70;99.90;;;;;;5044202;28;20234;-88
2022/05/08 02:35:12;;;;;;;6.57;1.80;;;8.70;99.90;;;;;;5045524;28;20266;-90
2022/05/08 02:37:40;;;;;;;2.63;1.03;;;8.60;99.90;;;;;;5044881;28;20235;-89
2022/05/08 02:40:08;;;;;;;0.50;0.50;;;8.60;99.90;;;;;;5044349;28;20220;-89
2022/05/08 02:42:35;;;;;;;13.83;3.70;;;8.60;99.90;;;;;;5044275;28;20260;-89
2022/05/08 02:45:02;;;;;;;7.73;1.00;;;8.60;99.90;;;;;;5027551;28;20217;-91
2022/05/08 02:47:28;;;;;;;4.93;1.53;;;8.50;99.90;;;;;;5044028;28;20240;-92
2022/05/08 02:49:54;;;;;;;8.80;0.90;;;8.50;99.90;;;;;;5027464;28;20190;-89
2022/05/08 02:52:20;;;;;;;4.87;0.90;;;8.60;99.90;;;;;;5044985;28;20190;-89
2022/05/08 02:54:46;;;;;;;1.13;1.00;;;8.60;99.90;;;;;;5027241;28;20696;-89
2022/05/08 03:00:00;;;;;;;3.47;0.50;;;8.70;99.90;;;;;;5044278;28;20225;-89
2022/05/08 03:02:26;;;;;;;1.37;1.10;;;8.70;99.90;;;;;;5044128;28;20223;-88
2022/05/08 03:04:52;;;;;;;1.13;0.90;;;8.70;99.90;;;;;;5045132;28;20264;-89
2022/05/08 03:07:17;;;;;;;0.83;0.83;;;8.70;99.90;;;;;;5045401;28;20229;-89
2022/05/08 03:09:43;;;;;;;5.80;0.80;;;8.60;99.90;;;;;;5044266;28;20233;-89
2022/05/08 03:12:09;;;;;;;4.30;1.87;;;8.60;99.90;;;;;;5011531;28;20598;-89
2022/05/08 03:14:36;;;;;;;4.57;1.00;;;8.60;99.90;;;;;;5044154;28;20210;-90
2022/05/08 03:17:02;;;;;;;5.60;0.90;;;8.60;99.90;;;;;;5045959;28;20294;-91
2022/05/08 03:19:29;;;;;;;1.03;0.63;;;8.60;99.90;;;;;;5014709;28;20627;-90
2022/05/08 03:21:55;;;;;;;3.83;0.83;;;8.60;99.90;;;;;;5029729;28;20226;-90
2022/05/08 03:24:20;;;;;;;1.47;0.87;;;8.70;99.90;;;;;;5031274;28;20680;-90
2022/05/08 03:26:46;;;;;;;0.80;0.50;;;8.70;99.90;;;;;;5047792;28;20236;-89
2022/05/08 03:29:12;;;;;;;7.53;1.33;;;8.60;99.90;;;;;;5048440;28;20190;-89
2022/05/08 03:31:39;;;;;;;2.93;1.23;;;8.60;99.90;;;;;;5031831;28;20639;-88
2022/05/08 03:34:04;;;;;;;0.70;0.70;;;8.60;99.90;;;;;;5047631;28;20226;-94
2022/05/08 03:36:30;;;;;;;4.80;1.07;;;8.60;99.90;;;;;;5048445;28;20210;-89
2022/05/08 03:38:56;;;;;;;4.73;1.07;;;8.60;99.90;;;;;;5031076;28;20213;-89
2022/05/08 03:41:22;;;;;;;26.00;1.80;;;8.70;99.90;;;;;;5047851;28;20209;-91
2022/05/08 03:43:47;;;;;;;5.00;1.00;;;8.70;99.90;;;;;;5048386;28;20235;-89
2022/05/08 03:46:16;;;;;;;2.17;1.30;;;8.70;99.90;;;;;;5047395;28;20221;-90
2022/05/08 03:48:45;;;;;;;1.10;0.87;;;8.70;99.90;;;;;;5047999;28;20233;-91
2022/05/08 03:51:13;;;;;;;3.27;0.60;;;8.70;99.90;;;;;;5047700;28;21111;-93
2022/05/08 03:53:39;;;;;;;1.80;1.00;;;8.60;99.90;;;;;;5045784;28;20205;-89
2022/05/08 03:56:05;;;;;;;0.70;0.70;;;8.60;99.90;;;;;;5047325;28;20276;-88
2022/05/08 03:58:31;;;;;;;0.87;0.60;;;8.60;99.90;;;;;;5049520;28;20249;-90
2022/05/08 04:00:56;;;;;;;0.50;0.50;;;8.60;99.90;;;;;;5029671;28;20271;-89
2022/05/08 04:03:22;;;;;;;2.93;0.63;;;8.50;99.90;;;;;;5048850;28;20249;-89
2022/05/08 04:05:48;;;;;;;1.10;1.03;;;8.50;99.90;;;;;;5031154;28;20216;-89
2022/05/08 04:08:14;;;;;;;1.90;1.73;;;8.50;99.90;;;;;;5046903;28;20230;-89
2022/05/08 04:10:39;;;;;;;6.63;1.03;;;8.60;99.90;;;;;;5031562;28;20239;-89
2022/05/08 04:13:05;;;;;;;4.03;0.53;;;8.60;99.90;;;;;;5047225;28;20217;-89
2022/05/08 04:18:15;;;;;;;21.80;1.37;;;8.70;99.90;;;;;;5047048;28;20694;-90
2022/05/08 04:20:40;;;;;;;0.57;0.57;;;8.70;99.90;;;;;;5030075;28;20298;-92
2022/05/08 04:25:54;;;;;;;1.83;0.90;;;8.80;99.90;;;;;;5033818;28;20250;-88
2022/05/08 04:28:19;;;;;;;1.10;1.10;;;8.80;99.90;;;;;;5046105;28;20573;-90
2022/05/08 04:30:50;;;;;;;6.73;0.93;;;8.90;99.90;;;;;;5030111;28;20225;-88
2022/05/08 04:33:16;;;;;;;0.60;0.60;;;9.00;99.90;;;;;;5046946;28;20225;-91
2022/05/08 04:35:42;;;;;;;0.80;0.80;;;9.00;99.90;;;;;;5029629;28;20995;-88
2022/05/08 04:38:08;;;;;;;10.90;1.67;;;9.10;99.90;;;;;;5028664;28;20634;-91
2022/05/08 04:40:33;;;;;;;0.80;0.80;;;9.20;99.90;;;;;;5045683;28;20189;-88
2022/05/08 04:42:59;;;;;;;4.93;1.43;;;9.20;99.90;;;;;;5044925;28;20214;-92
2022/05/08 04:45:25;;;;;;;1.00;0.87;;;9.30;99.90;;;;;;5044821;28;20275;-90
2022/05/08 04:47:51;;;;;;;0.80;0.80;;;9.30;99.90;;;;;;5045055;28;20233;-90
2022/05/08 04:50:17;;;;;;;3.60;1.43;;;9.40;99.90;;;;;;5046847;28;20279;-92
2022/05/08 04:52:43;;;;;;;3.80;1.63;;;9.40;99.90;;;;;;5047390;28;20635;-90
2022/05/08 04:55:09;;;;;;;0.57;0.57;;;9.40;99.90;;;;;;5030334;28;20410;-89
2022/05/08 04:57:35;;;;;;;0.73;0.73;;;9.50;99.90;;;;;;5047700;28;20237;-91
2022/05/08 05:00:01;;;;;;;2.27;1.50;;;9.50;99.90;;;;;;5030481;28;20218;-90
2022/05/08 05:02:27;;;;;;;3.90;1.67;;;9.60;99.90;;;;;;5030391;28;20647;-92
2022/05/08 05:04:53;;;;;;;0.93;0.80;;;9.60;99.90;;;;;;5046443;28;20182;-89
2022/05/08 05:07:19;;;;;;;2.53;1.27;;;9.70;99.90;;;;;;5047353;28;21216;-91
2022/05/08 05:09:44;;;;;;;1.60;1.20;;;9.80;99.90;;;;;;5030960;28;20233;-92
2022/05/08 05:12:11;;;;;;;3.93;1.77;;;10.00;99.90;;;;;;5045973;28;20305;-90
2022/05/08 05:14:36;;;;;;;1.60;1.20;;;10.10;99.90;;;;;;5029264;28;20220;-90
2022/05/08 05:17:05;;;;;;;7.93;1.27;;;10.20;99.90;;;;;;5019042;28;20194;-91
2022/05/08 05:19:31;;;;;;;3.73;1.43;;;10.20;99.90;;;;;;5044761;28;20189;-88
2022/05/08 05:21:57;;;;;;;0.77;0.77;;;10.20;99.90;;;;;;5027713;28;20214;-90
2022/05/08 05:24:23;;;;;;;1.00;0.80;;;10.30;99.90;;;;;;5028792;28;20770;-89
2022/05/08 05:26:48;;;;;;;1.03;0.80;;;10.30;99.90;;;;;;5044709;28;20233;-86
2022/05/08 05:29:17;;;;;;;0.57;0.57;;;10.50;99.90;;;;;;5045332;28;21005;-90
2022/05/08 05:31:43;;;;;;;1.83;0.90;;;10.80;99.90;;;;;;5029287;28;20798;-88
2022/05/08 05:34:09;;;;;;;1.03;0.70;;;10.90;99.90;;;;;;5027285;28;20296;-86
2022/05/08 05:36:34;;;;;;;2.53;0.73;;;11.00;99.90;;;;;;5027994;28;20232;-88
2022/05/08 05:39:00;;;;;;;1.00;1.00;;;11.00;99.90;;;;;;5026727;28;20736;-85
2022/05/08 05:41:26;;;;;;;1.77;0.70;;;11.00;99.90;;;;;;5027671;28;20233;-85
2022/05/08 05:43:51;;;;;;;0.73;0.67;;;10.90;99.90;;;;;;5028322;28;20538;-85
2022/05/08 05:49:01;;;;;;;0.60;0.60;;;10.90;99.90;;;;;;5044062;28;20242;-85
2022/05/08 05:51:27;;;;;;;0.60;0.60;;;10.90;99.90;;;;;;5012302;28;20236;-87
2022/05/08 05:53:53;;;;;;;3.67;1.10;;;11.20;99.90;;;;;;5027784;28;20291;-90
2022/05/08 05:56:18;;;;;;;3.67;1.03;;;12.00;99.90;;;;;;5048400;28;20548;-88
2022/05/08 05:58:44;;;;;;;1.30;1.20;;;12.10;99.90;;;;;;5030886;28;20469;-89
2022/05/08 06:01:10;;;;;;;3.73;0.50;;;11.80;99.90;;;;;;5044430;28;20213;-87
2022/05/08 06:03:38;;;;;;;0.57;0.57;;;11.60;99.90;;;;;;5043581;28;20309;-88
2022/05/08 06:06:03;;;;;;;1.37;0.87;;;11.30;99.90;;;;;;5042918;28;20222;-89
2022/05/08 06:08:29;;;;;;;0.50;0.50;;;11.50;99.90;;;;;;5044118;28;20226;-85
2022/05/08 06:10:55;;;;;;;5.33;1.53;;;13.10;99.90;;;;;;5026549;28;20244;-85
2022/05/08 06:13:23;;;;;;;2.50;0.90;;;14.30;99.90;;;;;;5005173;28;20630;-89
2022/05/08 06:15:49;;;;;;;0.73;0.73;;;14.90;99.90;;;;;;5043603;28;20214;-90
2022/05/08 06:18:15;;;;;;;3.00;0.90;;;13.70;99.90;;;;;;5048005;28;20226;-89
2022/05/08 06:20:40;;;;;;;0.70;0.70;;;13.00;99.90;;;;;;5029068;28;20749;-87
2022/05/08 06:23:06;;;;;;;1.97;0.87;;;14.20;99.90;;;;;;5046032;28;20662;-87
2022/05/08 06:25:32;;;;;;;0.87;0.87;;;14.00;99.90;;;;;;5045779;28;20202;-91
2022/05/08 06:27:58;;;;;;;1.53;1.00;;;14.90;99.90;;;;;;5046753;28;20705;-88
2022/05/08 06:30:23;;;;;;;3.80;0.53;;;16.40;99.90;;;;;;5014085;28;20288;-91
2022/05/08 06:32:52;;;;;;;0.43;0.43;;;16.80;99.90;;;;;;5013682;28;20690;-95
2022/05/08 06:35:18;;;;;;;1.73;0.63;;;16.10;99.90;;;;;;5046811;28;20531;-88
2022/05/08 06:37:43;;;;;;;2.10;1.00;;;14.60;99.90;;;;;;5030275;28;20190;-92
2022/05/08 06:40:09;;;;;;;2.83;0.90;;;14.10;99.90;;;;;;5028738;28;20218;-87
2022/05/08 06:42:35;;;;;;;3.00;1.50;;;13.50;99.90;;;;;;4997509;28;20225;-87
2022/05/08 06:45:02;;;;;;;0.87;0.70;;;13.90;99.90;;;;;;5043435;28;20257;-89
2022/05/08 06:47:28;;;;;;;3.27;1.27;;;16.00;99.90;;;;;;5042758;28;20248;-86
2022/05/08 06:49:54;;;;;;;2.93;0.90;;;18.20;99.90;;;;;;5043076;28;20202;-86
2022/05/08 06:52:20;;;;;;;2.03;0.80;;;19.40;99.90;;;;;;5026535;28;20197;-89
2022/05/08 06:54:45;;;;;;;4.83;1.00;;;19.90;99.90;;;;;;5043693;28;20221;-91
2022/05/08 06:57:16;;;;;;;1.13;0.70;;;19.90;99.90;;;;;;5035966;28;20232;-90
2022/05/08 07:02:27;;;;;;;2.73;1.00;;;18.00;99.90;;;;;;5045417;28;20267;-90
2022/05/08 07:04:52;;;;;;;4.57;1.00;;;16.80;99.90;;;;;;5029249;28;20190;-92
2022/05/08 07:07:20;;;;;;;5.50;1.10;;;16.00;99.90;;;;;;5013591;28;20551;-89
2022/05/08 07:09:51;;;;;;;1.90;1.20;;;15.60;99.90;;;;;;5047129;28;20311;-90
2022/05/08 07:12:24;;;;;;;6.10;0.87;;;14.40;99.90;;;;;;5046050;28;20226;-91
2022/05/08 07:14:54;;;;;;;0.43;0.40;;;13.80;99.90;;;;;;5045250;28;20218;-91
2022/05/08 07:17:23;;;;;;;2.37;1.10;;;13.50;99.90;;;;;;5046199;28;20339;-94
2022/05/08 07:19:49;;;;;;;2.00;0.60;;;13.80;99.90;;;;;;5044127;28;20189;-93
2022/05/08 07:22:18;;;;;;;3.93;0.93;;;14.60;99.90;;;;;;5044452;28;20242;-90
2022/05/08 07:24:44;;;;;;;0.60;0.60;;;14.60;99.90;;;;;;5044200;28;20221;-90
2022/05/08 07:27:15;;;;;;;5.17;1.33;;;14.50;99.90;;;;;;5044985;28;20578;-94
2022/05/08 07:29:42;;;;;;;2.27;0.97;;;14.40;99.90;;;;;;5036285;28;20232;-88
2022/05/08 07:32:08;;;;;;;0.93;0.77;;;13.50;99.90;;;;;;5061558;28;20182;-91
2022/05/08 07:37:18;;;;;;;0.73;0.67;;;14.90;99.90;;;;;;5045804;28;20221;-92
2022/05/08 07:39:44;;;;;;;2.37;1.00;;;14.50;99.90;;;;;;5044662;28;20206;-90
2022/05/08 07:42:10;;;;;;;0.63;0.43;;;14.60;99.90;;;;;;5028181;28;20601;-89
2022/05/08 07:44:36;;;;;;;3.53;0.80;;;15.80;99.90;;;;;;5044050;28;20210;-90
2022/05/08 07:47:05;;;;;;;2.03;0.90;;;16.30;99.90;;;;;;5017681;28;20194;-88
2022/05/08 07:49:33;;;;;;;2.73;0.70;;;16.20;99.90;;;;;;5045810;28;20228;-93
2022/05/08 07:51:59;;;;;;;0.63;0.60;;;16.60;99.90;;;;;;5045644;28;20283;-93
2022/05/08 07:54:27;;;;;;;5.13;2.40;;;18.00;99.90;;;;;;5048623;28;20217;-92
2022/05/08 07:56:53;;;;;;;3.13;0.80;;;19.90;99.90;;;;;;5045407;28;20300;-89
2022/05/08 07:59:19;;;;;;;3.60;0.97;;;18.60;99.90;;;;;;5043824;28;20757;-91
2022/05/08 08:01:44;;;;;;;1.90;0.90;;;17.30;99.90;;;;;;5045043;28;20194;-94
2022/05/08 08:04:13;;;;;;;3.50;1.13;;;18.60;99.90;;;;;;5047641;28;20225;-93
2022/05/08 08:06:39;;;;;;;3.87;1.07;;;18.60;99.90;;;;;;5026762;28;20288;-92
2022/05/08 08:09:12;;;;;;;2.90;0.80;;;18.90;99.90;;;;;;5046217;28;20218;-93
2022/05/08 08:11:42;;;;;;;2.33;1.07;;;18.60;99.90;;;;;;5046741;28;20206;-91
2022/05/08 08:14:18;;;;;;;3.50;1.37;;;18.40;99.90;;;;;;5047214;28;20221;-92
2022/05/08 08:16:47;;;;;;;1.90;1.07;;;17.10;99.90;;;;;;5047573;28;20197;-94
2022/05/08 08:19:13;;;;;;;2.17;0.90;;;16.10;99.90;;;;;;5030496;28;20248;-92
2022/05/08 08:21:41;;;;;;;5.07;1.53;;;16.30;99.90;;;;;;5047823;28;20676;-90
2022/05/08 08:24:08;;;;;;;1.70;0.80;;;16.20;99.90;;;;;;5046174;28;20481;-92
2022/05/08 08:26:36;;;;;;;1.17;0.80;;;15.70;99.90;;;;;;5046241;28;20595;-91
2022/05/08 08:29:04;;;;;;;5.43;1.27;;;14.90;99.90;;;;;;5044631;28;20251;-89
2022/05/08 08:31:40;;;;;;;1.17;0.73;;;15.00;99.90;;;;;;5045844;28;20166;-93
2022/05/08 08:34:15;;;;;;;2.43;1.00;;;16.10;99.90;;;;;;5046700;28;20218;-92
2022/05/08 08:36:49;;;;;;;3.63;0.90;;;16.70;99.90;;;;;;5047155;28;20209;-93
2022/05/08 08:39:15;;;;;;;2.77;1.03;;;16.90;99.90;;;;;;5046622;28;20231;-92
2022/05/08 08:41:52;;;;;;;3.50;1.20;;;16.00;99.90;;;;;;5045919;28;20308;-90
2022/05/08 08:49:52;;;;;;;4.37;1.07;;;14.20;99.90;;;;;;5047021;28;20182;-89
2022/05/08 08:52:21;;;;;;;3.13;0.80;;;14.50;99.90;;;;;;5045714;28;20599;-90
2022/05/08 08:54:47;;;;;;;5.10;1.00;;;14.40;99.90;;;;;;5045877;28;20222;-89
2022/05/08 08:57:13;;;;;;;1.37;0.70;;;14.80;99.90;;;;;;5028550;28;20697;-91
2022/05/08 08:59:41;;;;;;;2.03;0.90;;;14.80;99.90;;;;;;5011890;28;20222;-91
2022/05/08 09:02:21;;;;;;;1.53;1.00;;;14.50;99.90;;;;;;5044946;28;20233;-92
2022/05/08 09:04:58;;;;;;;5.17;1.30;;;15.50;99.90;;;;;;5029747;28;20232;-92
2022/05/08 09:07:41;;;;;;;1.83;0.80;;;16.80;99.90;;;;;;5047921;28;20222;-92
2022/05/08 09:10:20;;;;;;;2.70;0.97;;;17.00;99.90;;;;;;5045551;28;20666;-93
2022/05/08 09:12:51;;;;;;;2.33;0.97;;;16.20;99.90;;;;;;5035294;28;20227;-94
2022/05/08 09:15:29;;;;;;;1.33;1.17;;;16.70;99.90;;;;;;5035428;28;20227;-93
2022/05/08 09:18:15;;;;;;;1.57;1.17;;;16.10;99.90;;;;;;5042320;28;20670;-94
2022/05/08 09:20:51;;;;;;;1.20;1.10;;;16.10;99.90;;;;;;5037448;28;20270;-93
2022/05/08 09:23:22;;;;;;;2.67;1.10;;;17.40;99.90;;;;;;5047302;28;20209;-92
2022/05/08 09:25:54;;;;;;;3.03;1.00;;;16.70;99.90;;;;;;5046736;28;20642;-91
2022/05/08 09:28:44;;;;;;;3.50;0.73;;;14.50;99.90;;;;;;5005452;28;20226;-93
2022/05/08 09:31:12;;;;;;;5.07;1.03;;;16.20;99.90;;;;;;5047706;28;20257;-92
2022/05/08 09:33:45;;;;;;;1.67;1.00;;;17.70;99.90;;;;;;5045387;28;20207;-91
2022/05/08 09:36:21;;;;;;;4.07;1.70;;;17.30;99.90;;;;;;5048619;28;20555;-92
2022/05/08 09:38:52;;;;;;;2.20;0.80;;;17.30;99.90;;;;;;5030015;28;20350;-89
2022/05/08 09:41:19;;;;;;;2.73;0.90;;;17.00;99.90;;;;;;5046346;28;20270;-89
2022/05/08 09:43:45;;;;;;;1.43;0.80;;;17.30;99.90;;;;;;5046556;28;20185;-88
2022/05/08 09:46:12;;;;;;;1.10;0.70;;;16.80;99.90;;;;;;5045417;28;20570;-91
2022/05/08 09:48:37;;;;;;;2.17;0.80;;;16.30;99.90;;;;;;5029138;28;20240;-88
2022/05/08 09:51:08;;;;;;;2.30;0.70;;;16.10;99.90;;;;;;5044913;28;20225;-89
2022/05/08 09:53:36;;;;;;;0.70;0.70;;;16.30;99.90;;;;;;5046355;28;20210;-89
2022/05/08 09:56:05;;;;;;;1.10;1.00;;;15.10;99.90;;;;;;5045565;28;20189;-88
2022/05/08 09:58:32;;;;;;;4.50;1.77;;;15.30;99.90;;;;;;5046307;28;20220;-91
2022/05/08 10:00:58;;;;;;;6.40;1.17;;;16.10;99.90;;;;;;5045593;28;20222;-92
2022/05/08 10:03:24;;;;;;;4.20;1.50;;;17.10;99.90;;;;;;5047393;28;20304;-90
2022/05/08 10:05:51;;;;;;;1.63;0.90;;;17.50;99.90;;;;;;5029255;28;20213;-90
2022/05/08 10:08:24;;;;;;;5.73;1.20;;;17.00;99.90;;;;;;5029389;28;20279;-93
2022/05/08 10:14:05;;;;;;;2.70;1.00;;;18.20;99.90;;;;;;5045235;28;20225;-90
2022/05/08 10:16:50;;;;;;;1.90;1.00;;;18.10;99.90;;;;;;5044408;28;20213;-89
2022/05/08 10:19:24;;;;;;;5.93;1.20;;;18.70;99.90;;;;;;5044006;28;20221;-91
2022/05/08 10:22:14;;;;;;;1.17;0.97;;;18.50;99.90;;;;;;5045636;28;20209;-91
2022/05/08 10:24:47;;;;;;;1.13;0.97;;;18.10;99.90;;;;;;5045460;28;20217;-89
2022/05/08 10:27:17;;;;;;;5.20;1.07;;;17.40;99.90;;;;;;5045220;28;20229;-91
2022/05/08 10:30:03;;;;;;;2.43;0.93;;;18.20;99.90;;;;;;5046121;28;20252;-90
2022/05/08 10:32:30;;;;;;;2.17;1.00;;;18.30;99.90;;;;;;5045079;28;20304;-89
2022/05/08 10:35:12;;;;;;;6.47;1.30;;;17.80;99.90;;;;;;5044647;28;20201;-89
2022/05/08 10:37:42;;;;;;;1.80;1.20;;;18.10;99.90;;;;;;5045752;28;20192;-93
2022/05/08 10:40:28;;;;;;;5.00;1.10;;;17.30;99.90;;;;;;5044999;28;20652;-90
2022/05/08 10:43:01;;;;;;;3.37;1.20;;;16.10;99.90;;;;;;5043634;28;20221;-92
2022/05/08 10:45:33;;;;;;;3.73;1.30;;;16.80;99.90;;;;;;5045364;28;20218;-89
2022/05/08 10:48:09;;;;;;;4.27;1.23;;;17.60;99.90;;;;;;5061077;28;20724;-91
2022/05/08 10:50:37;;;;;;;1.03;0.63;;;17.20;99.90;;;;;;5044715;28;20221;-89
2022/05/08 10:53:03;;;;;;;2.10;0.93;;;17.20;99.90;;;;;;5027637;28;20197;-90
2022/05/08 10:55:29;;;;;;;2.27;1.07;;;17.00;99.90;;;;;;5030053;28;20186;-90
2022/05/08 10:57:55;;;;;;;5.37;1.70;;;17.10;99.90;;;;;;5045178;28;20582;-93
2022/05/08 11:00:24;;;;;;;2.67;1.00;;;16.90;99.90;;;;;;5029852;28;20292;-93
2022/05/08 11:03:01;;;;;;;1.43;0.93;;;17.60;99.90;;;;;;5048495;28;20205;-89
2022/05/08 11:05:29;;;;;;;3.37;1.40;;;17.50;99.90;;;;;;5028509;28;20231;-90
2022/05/08 11:07:58;;;;;;;3.77;1.20;;;17.00;99.90;;;;;;5043144;28;20202;-89
2022/05/08 11:10:26;;;;;;;6.37;1.33;;;16.10;99.90;;;;;;5061106;28;20194;-91
2022/05/08 11:13:12;;;;;;;1.97;0.97;;;16.30;99.90;;;;;;5045099;28;20221;-89
2022/05/08 11:15:44;;;;;;;4.80;1.33;;;16.50;99.90;;;;;;5044065;28;20255;-85
2022/05/08 11:18:16;;;;;;;6.37;1.47;;;16.00;99.90;;;;;;5047254;28;20221;-88
2022/05/08 11:21:02;;;;;;;7.63;1.13;;;15.90;99.90;;;;;;5048301;28;20300;-88
2022/05/08 11:23:44;;;;;;;6.13;1.23;;;15.90;99.90;;;;;;5029789;28;20206;-88
2022/05/08 11:26:13;;;;;;;6.40;1.13;;;16.10;99.90;;;;;;5046937;28;20188;-90
2022/05/08 11:28:55;;;;;;;5.43;1.30;;;15.50;99.90;;;;;;5047593;28;20202;-95
2022/05/08 11:31:23;;;;;;;8.80;1.40;;;14.70;99.90;;;;;;5044458;28;20225;-91
2022/05/08 11:36:41;;;;;;;2.40;0.80;;;15.40;99.90;;;;;;5048414;28;20209;-93
2022/05/08 11:39:16;;;;;;;5.40;1.00;;;15.60;99.90;;;;;;5055211;28;20209;-91
2022/05/08 11:42:02;;;;;;;2.80;1.20;;;15.80;99.90;;;;;;5057104;28;20193;-90
2022/05/08 11:44:28;;;;;;;2.57;1.83;;;15.60;99.90;;;;;;5052806;28;20209;-89
2022/05/08 11:46:57;;;;;;;6.03;1.07;;;15.60;99.90;;;;;;5037691;28;20178;-90
2022/05/08 11:49:29;;;;;;;1.63;1.13;;;15.80;99.90;;;;;;5038458;28;20194;-90
2022/05/08 11:52:06;;;;;;;2.90;1.20;;;15.90;99.90;;;;;;5053632;28;20214;-93
2022/05/08 11:54:35;;;;;;;0.67;0.67;;;15.30;99.90;;;;;;5070696;28;20209;-91
2022/05/08 11:57:14;;;;;;;8.97;0.97;;;15.00;99.90;;;;;;5054232;28;20225;-91
2022/05/08 11:59:41;;;;;;;1.20;1.07;;;14.90;99.90;;;;;;5051008;28;20689;-90
2022/05/08 12:02:07;;;;;;;3.07;1.07;;;15.20;99.90;;;;;;5031288;28;20217;-87
2022/05/08 12:04:36;;;;;;;1.90;0.70;;;15.20;99.90;;;;;;5050204;28;20186;-87
2022/05/08 12:07:02;;;;;;;4.03;1.20;;;15.10;99.90;;;;;;5067014;28;20218;-89
2022/05/08 12:09:35;;;;;;;3.60;1.07;;;14.90;99.90;;;;;;5049625;28;20557;-90
2022/05/08 12:12:29;;;;;;;4.53;1.23;;;14.60;99.90;;;;;;5031833;28;20292;-91
2022/05/08 12:14:55;;;;;;;2.27;2.03;;;15.00;99.90;;;;;;5047404;28;20213;-89
2022/05/08 12:17:25;;;;;;;7.90;2.23;;;15.50;99.90;;;;;;5051513;28;20222;-90
2022/05/08 12:19:56;;;;;;;4.47;1.17;;;15.10;99.90;;;;;;5052250;28;20185;-90
2022/05/08 12:22:29;;;;;;;2.33;1.40;;;15.00;99.90;;;;;;5052913;28;20706;-89
2022/05/08 12:25:00;;;;;;;4.47;1.00;;;14.90;99.90;;;;;;5050629;28;20217;-90
2022/05/08 12:27:29;;;;;;;3.07;1.20;;;15.10;99.90;;;;;;5034452;28;20272;-90
2022/05/08 12:29:55;;;;;;;0.83;0.83;;;15.00;99.90;;;;;;5049395;28;20284;-89
2022/05/08 12:32:26;;;;;;;4.13;0.90;;;14.90;99.90;;;;;;5051784;28;20283;-90
2022/05/08 12:34:53;;;;;;;6.17;1.53;;;14.90;99.90;;;;;;5051030;28;20185;-90
2022/05/08 12:37:20;;;;;;;2.57;1.20;;;14.80;99.90;;;;;;5051493;28;20238;-90
2022/05/08 12:39:47;;;;;;;1.10;0.50;;;14.60;99.90;;;;;;5052086;28;20229;-90
2022/05/08 12:42:13;;;;;;;1.67;1.33;;;14.50;99.90;;;;;;5052946;28;20213;-89
2022/05/08 12:44:42;;;;;;;3.03;0.93;;;14.40;99.90;;;;;;5025794;28;20220;-90
2022/05/08 12:47:10;;;;;;;2.53;0.90;;;14.50;99.90;;;;;;5050607;28;20252;-90
2022/05/08 12:49:41;;;;;;;5.97;1.67;;;14.90;99.90;;;;;;5050958;28;20186;-90
2022/05/08 12:52:08;;;;;;;1.13;1.00;;;15.00;99.90;;;;;;5032665;28;20650;-91
2022/05/08 12:54:34;;;;;;;3.70;0.97;;;14.60;99.90;;;;;;5033282;28;20678;-91
2022/05/08 12:57:07;;;;;;;2.97;1.10;;;14.70;99.90;;;;;;5024228;28;20305;-90
2022/05/08 12:59:42;;;;;;;6.73;1.20;;;14.70;99.90;;;;;;5051418;28;20305;-90
2022/05/08 13:02:11;;;;;;;3.50;0.80;;;14.80;99.90;;;;;;5050096;28;20217;-91
2022/05/08 13:04:40;;;;;;;1.70;1.10;;;14.90;99.90;;;;;;5051297;28;20194;-91
2022/05/08 13:07:16;;;;;;;3.70;1.00;;;14.90;99.90;;;;;;5050800;28;20696;-92
2022/05/08 13:09:46;;;;;;;1.13;0.70;;;14.80;99.90;;;;;;5066904;28;20217;-92
2022/05/08 13:12:33;;;;;;;1.17;0.80;;;15.00;99.90;;;;;;5056795;28;20571;-92
2022/05/08 13:15:16;;;;;;;1.60;1.17;;;14.70;99.90;;;;;;5048902;28;20662;-93
2022/05/08 13:17:44;;;;;;;1.43;1.10;;;14.80;99.90;;;;;;5028306;28;20224;-91
2022/05/08 13:20:12;;;;;;;1.33;0.83;;;14.90;99.90;;;;;;5039782;28;20687;-95
2022/05/08 13:22:44;;;;;;;2.13;1.17;;;15.00;99.90;;;;;;5039077;28;20182;-92
2022/05/08 13:25:15;;;;;;;3.20;1.07;;;14.80;99.90;;;;;;5050169;28;20319;-95